Time;durP1;ratioP1;P1;durP2;ratioP2;P2;SDS_P1;SDS_P2;PMS_P1;PMS_P2;Temp;Humidity;BMP_temperature;BMP_pressure;BME280_temperature;BME280_humidity;BME280_pressure;Samples;Min_cycle;Max_cycle;Signal;HPM_P1;HPM_P2
2022/06/03 00:00:47;;;;;;;8.77;3.80;;;26.10;69.20;;;;;;10831631;32;20051;-76
2022/06/03 00:07:06;;;;;;;5.22;3.50;;;26.00;69.40;;;;;;10831262;32;20047;-75
2022/06/03 00:13:49;;;;;;;8.15;4.93;;;26.10;69.40;;;;;;10830186;32;20050;-76
2022/06/03 00:20:18;;;;;;;6.57;3.50;;;26.10;69.20;;;;;;10415642;32;12103644;-76
2022/06/03 00:26:33;;;;;;;8.23;4.00;;;26.10;69.00;;;;;;10790551;33;20028;-76
2022/06/03 00:32:34;;;;;;;5.10;3.45;;;26.00;69.60;;;;;;10789110;33;20306;-76
2022/06/03 00:39:03;;;;;;;7.47;3.50;;;25.90;69.90;;;;;;10787129;33;20016;-76
2022/06/03 00:45:23;;;;;;;5.00;3.30;;;25.90;70.10;;;;;;10818439;32;20050;-76
2022/06/03 00:51:46;;;;;;;6.87;3.67;;;25.80;70.40;;;;;;10830245;32;20035;-76
2022/06/03 00:57:54;;;;;;;5.37;4.03;;;25.80;70.70;;;;;;10830197;32;20021;-76
2022/06/03 01:04:41;;;;;;;8.32;3.42;;;25.80;70.70;;;;;;10824891;33;20054;-76
2022/06/03 01:11:11;;;;;;;6.47;4.15;;;25.80;70.80;;;;;;10827016;33;20083;-76
2022/06/03 01:17:33;;;;;;;7.20;4.30;;;25.70;70.70;;;;;;10923217;27;20065;-76
2022/06/03 01:23:52;;;;;;;7.62;4.50;;;25.70;70.90;;;;;;10789828;32;20036;-76
2022/06/03 01:30:10;;;;;;;5.70;3.70;;;25.60;71.10;;;;;;10788627;33;20353;-76
2022/06/03 01:36:46;;;;;;;7.22;4.35;;;25.60;71.20;;;;;;10794663;33;20032;-76
2022/06/03 01:43:08;;;;;;;5.35;3.40;;;25.60;71.00;;;;;;10791224;33;20035;-76
2022/06/03 01:49:33;;;;;;;10.52;6.85;;;25.50;70.90;;;;;;10795279;33;20024;-76
2022/06/03 01:56:00;;;;;;;10.52;5.47;;;25.50;71.20;;;;;;10790900;33;20033;-75
2022/06/03 02:02:58;;;;;;;9.35;7.35;;;25.40;71.30;;;;;;10985567;32;20018;-76
2022/06/03 02:09:25;;;;;;;10.43;6.03;;;25.30;71.20;;;;;;10982100;32;20052;-76
2022/06/03 02:15:41;;;;;;;11.43;6.32;;;25.40;71.20;;;;;;10984905;32;20023;-76
2022/06/03 02:21:48;;;;;;;7.30;5.07;;;25.40;71.50;;;;;;10984820;32;20370;-76
2022/06/03 02:28:21;;;;;;;6.87;4.85;;;25.30;71.70;;;;;;10985260;32;20018;-76
2022/06/03 02:34:29;;;;;;;6.97;5.15;;;25.30;71.90;;;;;;10984508;32;20038;-76
2022/06/03 02:40:42;;;;;;;6.00;4.15;;;25.30;71.80;;;;;;10984262;32;20530;-76
2022/06/03 02:46:57;;;;;;;6.87;4.65;;;25.20;71.90;;;;;;10983106;32;20418;-76
2022/06/03 02:53:11;;;;;;;7.00;4.95;;;25.10;72.60;;;;;;10983826;32;20018;-76
2022/06/03 02:59:34;;;;;;;6.53;4.62;;;25.10;72.60;;;;;;10983449;32;20442;-76
2022/06/03 03:06:40;;;;;;;8.45;4.45;;;25.10;72.70;;;;;;10983396;32;20057;-76
2022/06/03 03:13:01;;;;;;;5.22;3.87;;;25.00;72.80;;;;;;10982939;32;20022;-76
2022/06/03 03:19:50;;;;;;;7.05;5.55;;;24.90;72.70;;;;;;10978350;32;20030;-76
2022/06/03 03:26:12;;;;;;;6.20;4.55;;;24.90;72.90;;;;;;10792831;32;20032;-76
2022/06/03 03:32:19;;;;;;;11.05;5.97;;;24.90;72.70;;;;;;10791004;32;20040;-76
2022/06/03 03:39:00;;;;;;;4.83;3.90;;;24.90;72.60;;;;;;10791077;32;20052;-76
2022/06/03 03:45:39;;;;;;;6.97;4.57;;;24.80;72.60;;;;;;10647329;33;20018;-76
2022/06/03 03:52:02;;;;;;;5.57;3.85;;;24.80;72.60;;;;;;10634580;33;20021;-76
2022/06/03 03:58:09;;;;;;;7.93;5.05;;;24.80;72.60;;;;;;10688364;32;20448;-76
2022/06/03 04:04:23;;;;;;;7.50;5.32;;;24.80;72.70;;;;;;10827571;32;20043;-76
2022/06/03 04:11:02;;;;;;;5.80;4.15;;;24.80;72.90;;;;;;10827324;32;20107;-76
2022/06/03 04:17:23;;;;;;;;;;;24.80;72.70;;;;;;10846808;32;20073;-76
2022/06/03 04:24:05;;;;;;;5.25;4.18;;;24.80;72.70;;;;;;10967160;32;19926;-76
2022/06/03 04:30:14;;;;;;;5.65;4.00;;;24.80;72.70;;;;;;10790785;33;20054;-77
2022/06/03 04:36:37;;;;;;;13.07;5.32;;;24.90;72.70;;;;;;10789670;33;20388;-76
2022/06/03 04:43:26;;;;;;;4.93;3.58;;;24.80;72.70;;;;;;10773749;33;20032;-76
2022/06/03 04:49:56;;;;;;;6.95;3.20;;;24.80;72.40;;;;;;10645007;33;20103;-76
2022/06/03 04:56:21;;;;;;;6.78;3.22;;;24.90;72.40;;;;;;10643752;33;20052;-76
2022/06/03 05:03:16;;;;;;;4.00;2.97;;;25.00;72.30;;;;;;10644578;33;20049;-76
2022/06/03 05:09:47;;;;;;;5.87;3.62;;;25.10;71.80;;;;;;10815375;32;20403;-76
2022/06/03 05:16:18;;;;;;;8.25;4.00;;;25.10;71.80;;;;;;10833278;32;20082;-76
2022/06/03 05:22:36;;;;;;;4.45;2.67;;;25.10;71.50;;;;;;10868671;32;20127;-76
2022/06/03 05:29:10;;;;;;;4.73;2.90;;;25.20;71.40;;;;;;10981948;32;20433;-76
2022/06/03 05:35:22;;;;;;;5.72;3.40;;;25.30;71.20;;;;;;10968565;32;20429;-77
2022/06/03 05:48:45;;;;;;;4.25;3.10;;;25.40;70.70;;;;;;10966714;32;20035;-76
2022/06/03 05:55:07;;;;;;;4.18;2.25;;;25.60;70.40;;;;;;10948197;32;20054;-77
2022/06/03 06:01:48;;;;;;;5.80;3.33;;;25.80;70.10;;;;;;10948167;32;20327;-77
2022/06/03 06:08:25;;;;;;;4.05;2.58;;;25.90;69.90;;;;;;10933771;32;20019;-77
2022/06/03 06:14:33;;;;;;;5.72;3.25;;;25.80;70.00;;;;;;10928275;32;20441;-77
2022/06/03 06:20:38;;;;;;;35.97;6.12;;;25.80;70.10;;;;;;10946738;32;20018;-72
2022/06/03 06:27:14;;;;;;;3.87;2.33;;;25.90;69.80;;;;;;10944817;32;20019;-76
2022/06/03 06:33:35;;;;;;;4.43;3.35;;;26.20;69.20;;;;;;10946857;32;20289;-77
2022/06/03 06:39:51;;;;;;;4.25;2.78;;;26.30;69.30;;;;;;10929986;32;20065;-78
2022/06/03 06:46:04;;;;;;;3.75;2.60;;;26.30;69.30;;;;;;10946402;32;20026;-76
2022/06/03 06:52:28;;;;;;;5.47;2.15;;;26.50;68.90;;;;;;10946289;32;20426;-76
2022/06/03 06:58:50;;;;;;;2.75;2.03;;;26.70;68.30;;;;;;10945316;32;20019;-78
2022/06/03 07:05:24;;;;;;;3.97;2.90;;;26.90;67.70;;;;;;10945845;32;20026;-77
2022/06/03 07:11:44;;;;;;;4.25;2.47;;;27.00;67.00;;;;;;10945398;32;20019;-77
2022/06/03 07:24:42;;;;;;;2.67;1.90;;;27.10;67.50;;;;;;10940908;32;20038;-77
2022/06/03 07:30:50;;;;;;;3.62;2.25;;;27.20;66.70;;;;;;10944198;32;20051;-76
2022/06/03 07:37:27;;;;;;;4.85;2.20;;;27.40;66.30;;;;;;10940366;32;20019;-76
2022/06/03 07:43:39;;;;;;;5.40;2.17;;;27.40;65.60;;;;;;10751653;32;20055;-76
2022/06/03 07:49:53;;;;;;;2.45;1.95;;;27.30;66.40;;;;;;10742291;33;20020;-76
2022/06/03 07:55:57;;;;;;;4.82;3.05;;;27.10;66.40;;;;;;10754290;33;20051;-73
2022/06/03 08:02:13;;;;;;;3.62;2.40;;;27.00;66.20;;;;;;10754851;33;20028;-77
2022/06/03 08:14:42;;;;;;;4.57;2.03;;;27.00;66.00;;;;;;10754695;33;20402;-77
2022/06/03 08:21:04;;;;;;;7.97;3.60;;;27.10;65.80;;;;;;10913723;32;20081;-76
2022/06/03 08:27:34;;;;;;;3.50;2.20;;;27.20;64.90;;;;;;10938662;32;20049;-76
2022/06/03 08:33:55;;;;;;;4.90;3.03;;;27.30;64.70;;;;;;10942709;32;20053;-78
2022/06/03 08:40:02;;;;;;;3.58;2.65;;;27.30;64.50;;;;;;10942399;32;20019;-76
2022/06/03 08:46:20;;;;;;;4.65;3.12;;;27.30;65.10;;;;;;10942574;32;20054;-77
2022/06/03 08:52:53;;;;;;;8.95;2.70;;;27.30;65.30;;;;;;10944174;32;20049;-76
2022/06/03 08:58:58;;;;;;;5.80;3.62;;;27.60;64.70;;;;;;10961945;32;20034;-77
2022/06/03 09:05:21;;;;;;;5.45;2.75;;;27.80;64.20;;;;;;10971049;32;20022;-77
2022/06/03 09:11:41;;;;;;;5.50;2.30;;;28.20;63.20;;;;;;10965252;32;20316;-76
2022/06/03 09:17:49;;;;;;;6.78;3.20;;;28.40;62.60;;;;;;10929910;27;20043;-77
2022/06/03 09:24:10;;;;;;;4.18;2.35;;;28.60;61.90;;;;;;10903390;32;20429;-78
2022/06/03 09:30:31;;;;;;;15.75;3.35;;;28.80;61.50;;;;;;10899559;32;20035;-74
2022/06/03 09:36:54;;;;;;;6.82;3.97;;;29.00;61.20;;;;;;10901445;32;20027;-75
2022/06/03 09:43:02;;;;;;;10.50;3.60;;;29.20;60.60;;;;;;10900290;32;20042;-76
2022/06/03 09:49:06;;;;;;;8.80;3.45;;;29.40;59.80;;;;;;10899527;32;20054;-77
2022/06/03 09:55:28;;;;;;;4.30;2.85;;;29.60;58.90;;;;;;10903847;32;20031;-77
2022/06/03 10:01:44;;;;;;;4.32;2.78;;;29.80;58.50;;;;;;10896317;32;20027;-77
2022/06/03 10:07:56;;;;;;;3.35;2.53;;;29.80;57.60;;;;;;10910031;32;20411;-77
2022/06/03 10:14:27;;;;;;;3.28;2.53;;;29.80;57.80;;;;;;10892568;32;20031;-77
2022/06/03 10:20:37;;;;;;;3.40;2.33;;;29.70;57.70;;;;;;10905430;32;20031;-77
2022/06/03 10:26:52;;;;;;;7.05;2.58;;;29.70;57.90;;;;;;10904545;32;20058;-78
2022/06/03 10:33:23;;;;;;;4.18;2.78;;;29.70;57.60;;;;;;10806909;33;20063;-77
2022/06/03 10:39:28;;;;;;;4.53;2.40;;;29.60;57.70;;;;;;10806894;32;20052;-76
2022/06/03 10:45:34;;;;;;;3.67;2.25;;;29.50;58.00;;;;;;10810315;32;20397;-76
2022/06/03 11:04:29;;;;;;;5.30;2.78;;;29.60;57.60;;;;;;10883755;32;20035;-76
2022/06/03 11:10:47;;;;;;;3.95;2.60;;;29.50;57.50;;;;;;10904935;32;20023;-77
2022/06/03 11:16:56;;;;;;;3.75;2.30;;;29.40;57.60;;;;;;10887594;32;20327;-76
2022/06/03 11:22:58;;;;;;;3.12;2.22;;;29.30;58.00;;;;;;10856213;32;20032;-77
2022/06/03 11:29:12;;;;;;;3.17;2.25;;;29.30;58.10;;;;;;10868416;32;20047;-76
2022/06/03 11:35:42;;;;;;;4.03;2.53;;;29.40;57.60;;;;;;10869664;32;20012;-75
2022/06/03 11:42:06;;;;;;;2.97;2.25;;;29.60;57.20;;;;;;10868968;32;20441;-76
2022/06/03 11:48:23;;;;;;;2.60;2.10;;;29.70;57.00;;;;;;10869921;32;20062;-76
2022/06/03 11:54:27;;;;;;;4.70;3.10;;;29.80;56.70;;;;;;10865021;32;20090;-76
2022/06/03 12:00:37;;;;;;;5.28;2.87;;;29.80;56.70;;;;;;10868621;32;20031;-76
2022/06/03 12:07:00;;;;;;;3.75;2.25;;;29.80;56.90;;;;;;10868543;32;20050;-77
2022/06/03 12:13:30;;;;;;;3.22;1.90;;;29.70;57.20;;;;;;10869547;32;20340;-76
2022/06/03 12:19:50;;;;;;;2.58;1.92;;;29.60;57.40;;;;;;10867877;32;20055;-76
2022/06/03 12:25:53;;;;;;;3.42;2.65;;;29.60;57.60;;;;;;10867858;32;20054;-75
2022/06/03 12:32:07;;;;;;;3.87;2.40;;;29.50;57.70;;;;;;10867664;32;20043;-76
2022/06/03 12:38:23;;;;;;;4.82;3.03;;;29.50;57.90;;;;;;10867485;32;20348;-77
2022/06/03 12:44:45;;;;;;;3.42;2.00;;;29.40;58.00;;;;;;10854020;32;20065;-76
2022/06/03 12:51:28;;;;;;;7.18;2.08;;;29.30;58.20;;;;;;10863796;32;20065;-75
2022/06/03 12:57:36;;;;;;;6.75;3.17;;;29.30;58.30;;;;;;10858789;32;20024;-76
2022/06/03 13:03:40;;;;;;;3.20;2.20;;;29.20;58.60;;;;;;10866673;32;20058;-76
2022/06/03 13:10:04;;;;;;;4.70;2.33;;;29.10;58.90;;;;;;10892651;32;20050;-76
2022/06/03 13:16:25;;;;;;;4.62;3.00;;;29.00;59.00;;;;;;10903303;32;20355;-76
2022/06/03 13:22:41;;;;;;;6.55;3.17;;;29.00;59.10;;;;;;10903955;32;20333;-76
2022/06/03 13:28:44;;;;;;;3.50;2.43;;;28.90;59.20;;;;;;10904992;32;20031;-76
2022/06/03 13:34:46;;;;;;;4.35;2.40;;;28.80;59.30;;;;;;10911526;32;20068;-75
2022/06/03 13:47:13;;;;;;;3.40;2.50;;;28.80;59.70;;;;;;10910786;32;20041;-75
2022/06/03 13:53:31;;;;;;;3.50;2.58;;;28.80;59.90;;;;;;10899789;32;20057;-75
2022/06/03 13:59:39;;;;;;;5.60;2.60;;;28.70;60.20;;;;;;10905298;32;20392;-75
2022/06/03 14:06:26;;;;;;;2.20;1.83;;;28.60;60.60;;;;;;10882455;32;20339;-75
2022/06/03 14:12:47;;;;;;;3.55;2.55;;;28.50;60.90;;;;;;10878758;32;20036;-74
2022/06/03 14:19:09;;;;;;;5.72;3.20;;;28.40;61.30;;;;;;10875678;32;20027;-74
2022/06/03 14:25:47;;;;;;;4.03;2.00;;;28.30;61.70;;;;;;10871601;32;20027;-74
2022/06/03 14:31:57;;;;;;;4.43;2.10;;;28.20;62.20;;;;;;10872253;32;20384;-74
2022/06/03 14:38:11;;;;;;;6.20;2.97;;;28.10;62.70;;;;;;10876309;32;20058;-75
2022/06/03 14:44:19;;;;;;;6.00;3.17;;;28.00;63.10;;;;;;10869267;32;20053;-75
2022/06/03 14:50:25;;;;;;;4.50;2.87;;;27.90;63.40;;;;;;10896152;32;20057;-71
2022/06/03 14:56:43;;;;;;;6.30;3.53;;;27.90;63.50;;;;;;10906886;32;20015;-72
2022/06/03 15:03:19;;;;;;;3.28;2.08;;;27.80;63.70;;;;;;10906190;32;20032;-72
2022/06/03 15:09:33;;;;;;;5.00;3.25;;;27.80;63.80;;;;;;10719028;33;20334;-71
2022/06/03 15:15:36;;;;;;;9.85;2.80;;;27.80;63.80;;;;;;10730417;33;20028;-72
2022/06/03 15:21:39;;;;;;;8.60;3.40;;;27.70;63.80;;;;;;10752352;33;20394;-71
2022/06/03 15:27:51;;;;;;;4.22;3.45;;;27.60;64.00;;;;;;10714915;33;20079;-72
2022/06/03 15:34:03;;;;;;;10.82;4.22;;;27.50;64.10;;;;;;10750607;33;20063;-75
2022/06/03 15:40:07;;;;;;;5.53;3.97;;;27.40;64.30;;;;;;10751433;33;20058;-74
2022/06/03 15:46:29;;;;;;;6.07;4.32;;;27.40;64.80;;;;;;10868345;32;20320;-74
2022/06/03 15:52:44;;;;;;;5.90;4.12;;;27.30;65.00;;;;;;10894690;32;20027;-75
2022/06/03 15:59:07;;;;;;;7.35;4.62;;;27.30;65.20;;;;;;10867238;32;20059;-74
2022/06/03 16:05:19;;;;;;;6.10;3.78;;;27.30;65.80;;;;;;10865709;32;20032;-76
2022/06/03 16:11:42;;;;;;;7.00;4.70;;;27.30;65.80;;;;;;10863199;32;20379;-74
2022/06/03 16:18:08;;;;;;;4.55;3.47;;;27.30;65.90;;;;;;10484021;32;12021622;-73
2022/06/03 16:24:26;;;;;;;5.75;4.53;;;27.20;65.80;;;;;;10826934;32;20048;-74
2022/06/03 16:30:49;;;;;;;8.40;3.87;;;27.20;66.10;;;;;;10827161;32;20393;-74
2022/06/03 16:37:22;;;;;;;6.45;4.03;;;27.20;66.20;;;;;;10715529;33;20076;-74
2022/06/03 16:43:33;;;;;;;6.05;4.15;;;27.20;66.40;;;;;;10729993;33;20040;-74
2022/06/03 16:49:42;;;;;;;6.45;4.25;;;27.10;66.50;;;;;;10785479;33;20039;-75
2022/06/03 16:55:55;;;;;;;4.50;3.58;;;27.10;66.60;;;;;;10788278;33;20322;-76
2022/06/03 17:01:59;;;;;;;6.62;4.68;;;27.00;66.70;;;;;;10788526;33;20058;-76
2022/06/03 17:08:01;;;;;;;7.87;4.68;;;27.00;66.80;;;;;;10779130;33;20050;-76
2022/06/03 17:14:10;;;;;;;7.62;5.65;;;26.90;67.00;;;;;;10895011;27;20266;-76
2022/06/03 17:20:18;;;;;;;8.38;5.20;;;26.90;67.10;;;;;;10962214;32;20347;-76
2022/06/03 17:26:30;;;;;;;;;;;26.90;67.30;;;;;;10976503;32;20048;-75
2022/06/03 17:32:45;;;;;;;6.65;4.57;;;26.80;67.60;;;;;;10978964;32;20222;-75
2022/06/03 17:39:01;;;;;;;6.82;5.40;;;26.80;67.90;;;;;;10978302;32;20342;-76
2022/06/03 17:45:21;;;;;;;5.70;4.25;;;26.80;67.80;;;;;;10978300;32;20371;-75
2022/06/03 17:58:21;;;;;;;7.18;5.57;;;26.80;68.00;;;;;;10964748;32;20418;-75
2022/06/03 18:04:26;;;;;;;8.00;5.72;;;26.70;68.00;;;;;;10949353;32;20045;-75
2022/06/03 18:10:38;;;;;;;6.25;4.68;;;26.70;68.10;;;;;;10964923;32;20319;-75
2022/06/03 18:16:54;;;;;;;8.20;4.65;;;26.70;68.40;;;;;;10978118;32;20023;-75
2022/06/03 18:22:56;;;;;;;9.65;5.82;;;26.70;68.40;;;;;;10981360;32;20080;-75
2022/06/03 18:29:15;;;;;;;9.30;5.28;;;26.70;68.50;;;;;;10950268;32;20026;-76
2022/06/03 18:35:21;;;;;;;7.45;5.80;;;26.70;68.80;;;;;;10946342;32;20023;-75
2022/06/03 18:42:11;;;;;;;7.72;5.45;;;26.60;68.80;;;;;;10932641;32;20054;-75
2022/06/03 18:48:19;;;;;;;7.55;5.07;;;26.60;68.80;;;;;;10945924;32;20022;-75
2022/06/03 18:55:06;;;;;;;7.15;4.72;;;26.60;69.00;;;;;;10941699;32;20068;-75
2022/06/03 19:01:48;;;;;;;8.50;4.37;;;26.50;69.10;;;;;;10776692;32;20028;-75
2022/06/03 19:08:13;;;;;;;14.13;5.68;;;26.50;69.30;;;;;;10792470;33;20431;-75
2022/06/03 19:14:36;;;;;;;11.63;6.90;;;26.40;69.40;;;;;;10792290;32;20055;-75
2022/06/03 19:20:50;;;;;;;7.72;6.35;;;26.30;69.40;;;;;;10792250;32;20032;-74
2022/06/03 19:26:52;;;;;;;7.32;5.40;;;26.30;69.40;;;;;;10774911;33;20401;-75
2022/06/03 19:33:04;;;;;;;6.03;4.35;;;26.10;69.40;;;;;;10757291;32;20440;-74
2022/06/03 19:39:15;;;;;;;11.52;5.82;;;26.10;69.50;;;;;;10944648;32;20477;-74
2022/06/03 19:45:26;;;;;;;7.82;5.95;;;26.00;69.60;;;;;;10944252;32;20030;-75
2022/06/03 19:51:55;;;;;;;9.63;6.12;;;26.00;69.50;;;;;;10942308;32;20030;-74
2022/06/03 19:57:56;;;;;;;;;;;26.00;69.50;;;;;;10944063;32;20030;-75
2022/06/03 20:04:14;;;;;;;8.45;6.32;;;26.00;69.60;;;;;;10943487;32;19926;-76
2022/06/03 20:10:18;;;;;;;8.70;7.05;;;25.90;69.60;;;;;;10943426;32;20077;-76
2022/06/03 20:16:22;;;;;;;7.60;5.15;;;25.90;69.60;;;;;;10943073;32;20023;-76
2022/06/03 20:22:57;;;;;;;8.80;5.68;;;25.90;69.70;;;;;;10930677;32;20348;-76
2022/06/03 20:29:20;;;;;;;9.57;7.57;;;25.90;69.90;;;;;;10936453;32;20068;-76
2022/06/03 20:36:00;;;;;;;10.77;6.85;;;25.90;69.80;;;;;;10927470;32;20295;-76
2022/06/03 20:42:25;;;;;;;10.90;7.53;;;25.80;69.90;;;;;;10790275;33;20039;-76
2022/06/03 20:48:36;;;;;;;8.88;6.57;;;25.80;70.00;;;;;;10691162;33;20072;-75
2022/06/03 20:54:52;;;;;;;10.65;7.65;;;25.70;70.00;;;;;;10716379;33;20058;-75
2022/06/03 21:01:05;;;;;;;9.73;7.05;;;25.70;70.10;;;;;;10697424;33;20203;-76
2022/06/03 21:13:35;;;;;;;14.52;9.88;;;25.60;70.20;;;;;;10729366;33;20118;-76
2022/06/03 21:19:37;;;;;;;10.30;7.15;;;25.60;70.20;;;;;;10821495;32;20300;-76
2022/06/03 21:25:42;;;;;;;8.90;7.07;;;25.50;70.30;;;;;;10949505;32;20026;-76
2022/06/03 21:32:05;;;;;;;9.27;6.22;;;25.50;70.30;;;;;;10974881;32;20018;-76
2022/06/03 21:38:13;;;;;;;10.02;7.25;;;25.50;70.50;;;;;;10978949;32;20045;-76
2022/06/03 21:44:25;;;;;;;11.25;7.22;;;25.50;70.70;;;;;;10978729;32;20076;-75
2022/06/03 21:50:48;;;;;;;10.98;9.13;;;25.50;70.90;;;;;;10981684;32;20092;-76
2022/06/03 21:56:58;;;;;;;10.10;7.82;;;25.40;71.00;;;;;;10946273;32;20346;-76
2022/06/03 22:03:00;;;;;;;8.82;7.18;;;25.30;71.10;;;;;;10947882;32;20297;-76
2022/06/03 22:09:03;;;;;;;10.70;7.43;;;25.20;71.20;;;;;;10943705;32;20042;-76
2022/06/03 22:15:05;;;;;;;11.30;8.30;;;25.20;71.20;;;;;;10947671;32;20030;-76
2022/06/03 22:21:08;;;;;;;9.85;7.07;;;25.10;71.40;;;;;;10947491;32;20018;-76
2022/06/03 22:27:40;;;;;;;13.27;7.85;;;25.00;71.40;;;;;;10933544;32;20019;-76
2022/06/03 22:33:54;;;;;;;9.38;8.30;;;25.00;71.40;;;;;;10947273;32;20015;-76
2022/06/03 22:40:11;;;;;;;10.88;7.80;;;24.90;71.50;;;;;;10946973;32;20320;-76
2022/06/03 22:46:14;;;;;;;10.02;8.18;;;24.90;71.60;;;;;;10946850;32;20010;-76
2022/06/03 22:52:16;;;;;;;11.10;8.65;;;24.90;71.50;;;;;;10957734;32;20045;-76
2022/06/03 22:58:18;;;;;;;12.20;10.18;;;24.80;71.70;;;;;;10983903;32;20386;-76
2022/06/03 23:04:22;;;;;;;10.95;8.07;;;24.80;71.80;;;;;;10970154;32;20027;-76
2022/06/03 23:10:24;;;;;;;11.40;9.20;;;24.70;71.90;;;;;;10983326;32;20023;-76
2022/06/03 23:16:28;;;;;;;10.02;8.23;;;24.70;72.00;;;;;;10983116;32;20350;-76
2022/06/03 23:22:30;;;;;;;12.13;9.20;;;24.60;71.90;;;;;;10983069;32;20045;-76
2022/06/03 23:28:32;;;;;;;9.57;8.13;;;24.60;72.20;;;;;;10982836;32;20019;-76
2022/06/03 23:34:37;;;;;;;12.63;9.93;;;24.60;72.70;;;;;;10978257;32;20014;-76
2022/06/03 23:40:41;;;;;;;13.18;10.68;;;24.70;72.80;;;;;;10968792;32;20479;-77
2022/06/03 23:46:43;;;;;;;11.38;8.55;;;24.60;72.70;;;;;;10982100;32;20375;-76
2022/06/03 23:52:46;;;;;;;9.70;8.38;;;24.60;72.80;;;;;;10981947;32;20077;-77
2022/06/03 23:58:48;;;;;;;10.07;8.45;;;24.50;72.80;;;;;;10980433;32;20322;-77
